createdAt,value
2019-03-11T00:00:24.660Z,18.19
2019-03-11T00:02:51.283Z,18.23
2019-03-11T00:05:17.969Z,18.23
2019-03-11T00:07:44.633Z,18.29
2019-03-11T00:10:11.289Z,18.32
2019-03-11T00:12:38.030Z,18.30
2019-03-11T00:15:04.735Z,18.37
2019-03-11T00:17:31.410Z,18.42
2019-03-11T00:19:58.101Z,18.43
2019-03-11T00:22:24.788Z,18.48
2019-03-11T00:24:51.434Z,18.48
2019-03-11T00:27:18.077Z,18.55
2019-03-11T00:29:44.734Z,18.57
2019-03-11T00:32:11.371Z,18.64
2019-03-11T00:34:38.029Z,18.65
2019-03-11T00:37:04.676Z,18.68
2019-03-11T00:39:31.322Z,18.74
2019-03-11T00:41:58.016Z,18.72
2019-03-11T00:44:24.655Z,18.78
2019-03-11T00:46:51.300Z,18.79
2019-03-11T00:49:17.960Z,18.86
2019-03-11T00:51:44.646Z,18.84
2019-03-11T00:54:11.336Z,18.90
2019-03-11T00:56:37.981Z,18.91
2019-03-11T00:59:04.633Z,18.93
2019-03-11T01:01:31.287Z,18.98
2019-03-11T01:03:57.934Z,18.97
2019-03-11T01:06:24.617Z,19.03
2019-03-11T01:08:51.259Z,19.06
2019-03-11T01:11:17.897Z,19.09
2019-03-11T01:13:44.536Z,19.15
2019-03-11T01:16:11.221Z,19.17
2019-03-11T01:18:37.931Z,19.20
2019-03-11T01:21:04.618Z,19.26
2019-03-11T01:23:31.260Z,19.29
2019-03-11T01:25:57.942Z,19.27
2019-03-11T01:28:24.633Z,19.29
2019-03-11T01:30:51.274Z,19.38
2019-03-11T01:33:17.922Z,19.40
2019-03-11T01:35:44.576Z,19.45
2019-03-11T01:38:11.334Z,19.53
2019-03-11T01:40:37.973Z,19.51
2019-03-11T01:43:04.611Z,19.59
2019-03-11T01:45:31.245Z,19.60
2019-03-11T01:47:57.898Z,19.67
2019-03-11T01:50:24.560Z,19.64
2019-03-11T01:52:51.198Z,19.70
2019-03-11T01:55:17.839Z,19.73
2019-03-11T01:57:44.504Z,19.76
2019-03-11T02:00:11.161Z,19.79
2019-03-11T02:02:37.846Z,19.75
2019-03-11T02:05:04.519Z,19.83
2019-03-11T02:07:31.205Z,19.82
2019-03-11T02:09:57.844Z,19.90
2019-03-11T02:12:24.481Z,19.93
2019-03-11T02:14:51.125Z,19.95
2019-03-11T02:17:17.773Z,19.98
2019-03-11T02:19:44.425Z,20.01
2019-03-11T02:22:11.091Z,20.01
2019-03-11T02:24:37.779Z,20.10
2019-03-11T02:27:04.430Z,20.17
2019-03-11T02:29:31.071Z,20.14
2019-03-11T02:31:57.719Z,20.20
2019-03-11T02:34:24.458Z,20.33
2019-03-11T02:36:51.061Z,20.24
2019-03-11T02:39:17.739Z,20.28
2019-03-11T02:41:44.380Z,20.31
2019-03-11T02:44:11.072Z,20.36
2019-03-11T02:46:37.715Z,20.40
2019-03-11T02:49:04.357Z,20.42
2019-03-11T02:51:30.994Z,20.45
2019-03-11T02:53:57.675Z,20.53
2019-03-11T02:56:24.332Z,20.51
2019-03-11T02:58:50.974Z,20.52
2019-03-11T03:01:17.615Z,20.57
2019-03-11T03:03:44.289Z,20.58
2019-03-11T03:06:10.971Z,20.61
2019-03-11T03:08:37.621Z,20.69
2019-03-11T03:11:04.307Z,20.72
2019-03-11T03:13:30.943Z,20.73
2019-03-11T03:15:57.647Z,20.75
2019-03-11T03:18:24.319Z,20.83
2019-03-11T03:20:50.950Z,20.83
2019-03-11T03:23:17.589Z,20.85
2019-03-11T03:25:44.276Z,20.88
2019-03-11T03:28:10.973Z,20.96
2019-03-11T03:30:37.579Z,20.92
2019-03-11T03:33:04.222Z,21.01
2019-03-11T03:35:30.901Z,21.03
2019-03-11T03:37:57.714Z,21.03
2019-03-11T03:40:24.384Z,21.00
2019-03-11T03:42:51.184Z,21.08
2019-03-11T03:45:17.735Z,21.10
2019-03-11T03:47:44.364Z,21.06
2019-03-11T03:50:11.022Z,21.14
2019-03-11T03:52:37.674Z,21.14
2019-03-11T03:55:04.324Z,21.15
2019-03-11T03:57:30.970Z,21.18
2019-03-11T03:59:57.609Z,21.25
2019-03-11T04:02:24.247Z,21.18
2019-03-11T04:04:50.899Z,21.16
2019-03-11T04:07:17.539Z,21.52
2019-03-11T04:09:44.229Z,22.13
2019-03-11T04:12:10.890Z,21.86
2019-03-11T04:14:37.573Z,21.69
2019-03-11T04:17:04.217Z,21.78
2019-03-11T04:19:30.914Z,21.77
2019-03-11T04:21:57.607Z,21.87
2019-03-11T04:24:24.256Z,22.25
2019-03-11T04:26:50.952Z,22.10
2019-03-11T04:29:17.599Z,22.10
2019-03-11T04:31:44.238Z,22.08
2019-03-11T04:34:10.935Z,21.90
2019-03-11T04:36:37.581Z,21.82
2019-03-11T04:39:04.217Z,21.93
2019-03-11T04:41:30.884Z,21.78
2019-03-11T04:43:57.511Z,21.85
2019-03-11T04:46:24.196Z,21.85
2019-03-11T04:48:50.846Z,21.96
2019-03-11T04:51:17.492Z,21.96
2019-03-11T04:53:44.193Z,22.04
2019-03-11T04:56:10.887Z,22.89
2019-03-11T04:58:37.528Z,22.11
2019-03-11T05:01:04.183Z,22.07
2019-03-11T05:03:30.832Z,22.19
2019-03-11T05:05:57.531Z,22.22
2019-03-11T05:08:24.187Z,22.19
2019-03-11T05:10:50.892Z,22.23
2019-03-11T05:13:17.573Z,22.19
2019-03-11T05:15:44.232Z,22.14
2019-03-11T05:18:10.931Z,22.39
2019-03-11T05:20:37.623Z,22.27
2019-03-11T05:23:04.261Z,22.48
2019-03-11T05:25:30.970Z,22.71
2019-03-11T05:27:57.602Z,22.80
2019-03-11T05:30:24.289Z,22.76
2019-03-11T05:32:50.960Z,22.89
2019-03-11T05:35:20.568Z,23.00
2019-03-11T05:37:47.223Z,22.94
2019-03-11T05:40:13.951Z,23.06
2019-03-11T05:42:40.745Z,23.04
2019-03-11T05:45:07.382Z,23.10
2019-03-11T05:47:34.033Z,22.96
2019-03-11T05:50:00.693Z,23.11
2019-03-11T05:52:27.333Z,23.26
2019-03-11T05:54:54.032Z,23.21
2019-03-11T05:57:22.001Z,23.14
2019-03-11T05:59:47.351Z,23.21
2019-03-11T06:02:14.001Z,23.27
2019-03-11T06:04:40.890Z,23.26
2019-03-11T06:07:07.531Z,23.25
2019-03-11T06:09:34.186Z,23.25
2019-03-11T06:12:00.857Z,23.29
2019-03-11T06:14:27.562Z,23.37
2019-03-11T06:16:54.228Z,23.33
2019-03-11T06:19:20.888Z,23.25
2019-03-11T06:21:47.525Z,23.20
2019-03-11T06:24:14.164Z,23.09
2019-03-11T06:26:40.864Z,22.90
2019-03-11T06:29:07.515Z,22.93
2019-03-11T06:31:34.173Z,23.00
2019-03-11T06:34:00.826Z,22.94
2019-03-11T06:36:27.467Z,22.84
2019-03-11T06:39:05.006Z,22.84
2019-03-11T06:41:20.786Z,22.80
2019-03-11T06:43:47.695Z,22.67
2019-03-11T06:46:14.243Z,22.58
2019-03-11T06:48:40.956Z,22.61
2019-03-11T06:51:07.670Z,22.75
2019-03-11T06:53:34.365Z,22.76
2019-03-11T06:56:01.006Z,22.98
2019-03-11T06:58:27.685Z,22.79
2019-03-11T07:00:54.349Z,22.92
2019-03-11T07:03:21.050Z,22.97
2019-03-11T07:05:47.719Z,23.03
2019-03-11T07:08:14.376Z,22.95
2019-03-11T07:10:41.129Z,23.09
2019-03-11T07:13:07.807Z,23.28
2019-03-11T07:15:34.505Z,23.41
2019-03-11T07:18:01.738Z,23.47
2019-03-11T07:20:28.402Z,23.43
2019-03-11T07:22:55.121Z,23.25
2019-03-11T07:25:21.860Z,23.22
2019-03-11T07:27:48.584Z,23.03
2019-03-11T07:30:15.227Z,23.21
2019-03-11T07:32:41.883Z,23.28
2019-03-11T07:35:08.997Z,23.21
2019-03-11T07:37:35.273Z,23.31
2019-03-11T07:40:01.954Z,23.38
2019-03-11T07:42:28.604Z,23.03
2019-03-11T07:44:55.277Z,23.19
2019-03-11T07:47:21.981Z,23.02
2019-03-11T07:49:48.627Z,23.07
2019-03-11T07:52:15.275Z,23.10
2019-03-11T07:54:41.930Z,23.12
2019-03-11T07:57:10.946Z,23.26
2019-03-11T07:59:37.426Z,23.16
2019-03-11T08:02:04.079Z,23.35
2019-03-11T08:04:30.738Z,23.38
2019-03-11T08:06:57.448Z,23.28
2019-03-11T08:09:24.181Z,23.32
2019-03-11T08:11:51.079Z,23.43
2019-03-11T08:14:17.739Z,23.32
2019-03-11T08:16:44.585Z,23.27
2019-03-11T08:19:11.222Z,23.21
2019-03-11T08:21:37.909Z,23.28
2019-03-11T08:24:04.719Z,23.17
2019-03-11T08:26:31.381Z,23.23
2019-03-11T08:28:58.070Z,23.13
2019-03-11T08:31:24.729Z,23.27
2019-03-11T08:33:51.757Z,23.14
2019-03-11T08:36:18.370Z,23.13
2019-03-11T08:38:47.708Z,23.24
2019-03-11T08:41:14.385Z,23.24
2019-03-11T08:43:41.083Z,23.34
2019-03-11T08:46:07.878Z,23.36
2019-03-11T08:48:34.531Z,23.46
2019-03-11T08:51:01.194Z,23.51
2019-03-11T08:53:27.852Z,23.65
2019-03-11T08:55:54.623Z,23.66
2019-03-11T08:58:21.299Z,23.60
2019-03-11T09:00:47.994Z,23.83
2019-03-11T09:03:14.654Z,24.02
2019-03-11T09:05:41.351Z,24.11
2019-03-11T09:08:08.036Z,24.15
2019-03-11T09:10:34.721Z,24.17
2019-03-11T09:13:01.499Z,24.05
2019-03-11T09:15:28.181Z,24.05
2019-03-11T09:17:54.979Z,24.06
2019-03-11T09:20:22.773Z,24.15
2019-03-11T09:22:49.454Z,24.12
2019-03-11T09:25:16.222Z,23.97
2019-03-11T09:27:42.897Z,24.04
2019-03-11T09:30:09.565Z,24.10
2019-03-11T09:32:37.377Z,24.22
2019-03-11T09:35:04.046Z,24.18
2019-03-11T09:37:30.764Z,24.20
2019-03-11T09:39:57.448Z,24.29
2019-03-11T09:42:24.121Z,24.23
2019-03-11T09:44:50.837Z,23.97
2019-03-11T09:47:17.500Z,23.98
2019-03-11T09:49:44.178Z,23.89
2019-03-11T09:52:10.862Z,24.01
2019-03-11T09:54:37.516Z,23.95
2019-03-11T09:57:04.194Z,23.96
2019-03-11T09:59:30.856Z,23.86
2019-03-11T10:01:57.530Z,23.82
2019-03-11T10:04:24.188Z,23.83
2019-03-11T10:06:50.862Z,23.73
2019-03-11T10:09:17.535Z,23.68
2019-03-11T10:11:44.228Z,23.77
2019-03-11T10:14:10.893Z,23.74
2019-03-11T10:16:37.556Z,23.89
2019-03-11T10:19:04.375Z,23.79
2019-03-11T10:21:31.060Z,23.93
2019-03-11T10:23:59.264Z,23.90
2019-03-11T10:26:24.459Z,23.90
2019-03-11T10:28:51.140Z,23.90
2019-03-11T10:31:17.797Z,23.97
2019-03-11T10:33:44.473Z,24.10
2019-03-11T10:36:11.137Z,23.91
2019-03-11T10:38:37.926Z,24.06
2019-03-11T10:41:04.580Z,24.30
2019-03-11T10:43:32.276Z,24.44
2019-03-11T10:45:57.917Z,24.38
2019-03-11T10:48:24.580Z,24.46
2019-03-11T10:50:51.298Z,24.44
2019-03-11T10:53:17.923Z,24.42
2019-03-11T10:55:44.587Z,24.40
2019-03-11T10:58:11.258Z,24.49
2019-03-11T11:00:37.974Z,24.62
2019-03-11T11:03:04.627Z,24.48
2019-03-11T11:05:31.323Z,24.52
2019-03-11T11:07:57.986Z,24.61
2019-03-11T11:10:24.766Z,24.66
2019-03-11T11:12:51.436Z,24.61
2019-03-11T11:15:18.117Z,24.55
2019-03-11T11:17:44.796Z,24.78
2019-03-11T11:20:11.481Z,24.79
2019-03-11T11:22:38.143Z,24.98
2019-03-11T11:25:04.785Z,24.82
2019-03-11T11:27:31.434Z,24.75
2019-03-11T11:29:58.090Z,24.99
2019-03-11T11:32:24.853Z,25.05
2019-03-11T11:34:51.489Z,25.00
2019-03-11T11:37:18.174Z,25.15
2019-03-11T11:39:44.830Z,25.08
2019-03-11T11:42:11.496Z,25.23
2019-03-11T11:44:38.146Z,25.06
2019-03-11T11:47:04.794Z,25.11
2019-03-11T11:49:31.453Z,25.14
2019-03-11T11:51:58.113Z,25.31
2019-03-11T11:54:24.758Z,25.36
2019-03-11T11:56:51.527Z,25.16
2019-03-11T11:59:18.179Z,25.24
2019-03-11T12:01:44.871Z,25.24
2019-03-11T12:04:13.502Z,25.24
2019-03-11T12:06:38.130Z,25.10
2019-03-11T12:09:06.876Z,25.17
2019-03-11T12:11:33.527Z,25.06
2019-03-11T12:14:00.174Z,24.93
2019-03-11T12:16:26.844Z,24.93
2019-03-11T12:18:53.626Z,24.88
2019-03-11T12:21:20.364Z,24.91
2019-03-11T12:23:47.034Z,24.89
2019-03-11T12:26:13.692Z,24.93
2019-03-11T12:28:40.343Z,24.94
2019-03-11T12:31:07.122Z,24.88
2019-03-11T12:33:33.770Z,24.76
2019-03-11T12:36:00.426Z,24.67
2019-03-11T12:38:28.832Z,24.70
2019-03-11T12:40:53.953Z,24.88
2019-03-11T12:43:20.612Z,24.92
2019-03-11T12:45:47.323Z,25.02
2019-03-11T12:48:13.975Z,24.77
2019-03-11T12:50:40.646Z,24.74
2019-03-11T12:53:08.426Z,24.78
2019-03-11T12:55:35.070Z,24.75
2019-03-11T12:58:01.762Z,24.72
2019-03-11T13:00:28.404Z,24.67
2019-03-11T13:02:55.078Z,24.75
2019-03-11T13:05:21.826Z,24.80
2019-03-11T13:07:48.494Z,24.81
2019-03-11T13:10:18.303Z,24.90
2019-03-11T13:12:45.303Z,24.93
2019-03-11T13:15:12.014Z,24.99
2019-03-11T13:17:38.663Z,25.05
2019-03-11T13:20:05.314Z,25.17
2019-03-11T13:22:31.986Z,25.21
2019-03-11T13:24:58.635Z,25.22
2019-03-11T13:27:25.290Z,25.36
2019-03-11T13:29:52.010Z,25.37
2019-03-11T13:32:18.680Z,25.36
2019-03-11T13:34:45.481Z,25.31
2019-03-11T13:37:12.132Z,25.41
2019-03-11T13:39:38.780Z,25.29
2019-03-11T13:42:05.465Z,25.24
2019-03-11T13:44:32.109Z,25.54
2019-03-11T13:46:58.768Z,25.42
2019-03-11T13:49:26.409Z,25.41
2019-03-11T13:51:53.149Z,25.43
2019-03-11T13:54:19.722Z,25.44
2019-03-11T13:56:46.437Z,25.43
2019-03-11T13:59:13.197Z,25.44
2019-03-11T14:01:39.844Z,25.43
2019-03-11T14:04:06.565Z,25.31
2019-03-11T14:06:33.282Z,25.30
2019-03-11T14:08:59.944Z,25.42
2019-03-11T14:11:26.597Z,25.49
2019-03-11T14:13:53.296Z,25.51
2019-03-11T14:16:19.990Z,25.78
2019-03-11T14:18:46.699Z,25.51
2019-03-11T14:21:13.349Z,25.72
2019-03-11T14:23:40.123Z,25.62
2019-03-11T14:26:06.852Z,25.84
2019-03-11T14:28:33.514Z,25.87
2019-03-11T14:31:00.220Z,25.69
2019-03-11T14:33:26.860Z,25.71
2019-03-11T14:35:53.512Z,25.74
2019-03-11T14:38:20.189Z,25.77
2019-03-11T14:40:46.892Z,25.68
2019-03-11T14:43:13.575Z,25.67
2019-03-11T14:45:40.242Z,25.76
2019-03-11T14:48:06.946Z,25.81
2019-03-11T14:50:33.565Z,25.88
2019-03-11T14:53:00.220Z,26.14
2019-03-11T14:55:26.888Z,26.23
2019-03-11T14:57:53.581Z,26.24
2019-03-11T15:00:20.228Z,26.11
2019-03-11T15:02:47.150Z,26.23
2019-03-11T15:05:13.876Z,26.34
2019-03-11T15:07:40.498Z,26.23
2019-03-11T15:10:07.285Z,26.13
2019-03-11T15:12:33.934Z,26.26
2019-03-11T15:15:00.626Z,26.33
2019-03-11T15:17:30.768Z,26.29
2019-03-11T15:19:57.525Z,26.33
2019-03-11T15:22:27.516Z,26.35
2019-03-11T15:24:54.193Z,26.19
2019-03-11T15:27:20.859Z,26.08
2019-03-11T15:29:47.540Z,26.04
2019-03-11T15:32:14.183Z,26.32
2019-03-11T15:34:40.886Z,26.15
2019-03-11T15:37:07.857Z,26.41
2019-03-11T15:39:34.266Z,25.91
2019-03-11T15:42:00.921Z,26.29
2019-03-11T15:44:27.690Z,26.21
2019-03-11T15:46:56.466Z,26.37
2019-03-11T15:49:20.905Z,26.38
2019-03-11T15:51:50.954Z,26.35
2019-03-11T15:54:17.604Z,26.28
2019-03-11T15:56:44.302Z,26.26
2019-03-11T15:59:10.946Z,26.27
2019-03-11T16:01:37.582Z,26.22
2019-03-11T16:04:04.275Z,26.24
2019-03-11T16:06:30.891Z,26.23
2019-03-11T16:08:57.620Z,26.21
2019-03-11T16:11:24.359Z,26.23
2019-03-11T16:13:51.002Z,26.24
2019-03-11T16:16:17.647Z,26.25
2019-03-11T16:18:46.953Z,26.21
2019-03-11T16:21:13.649Z,26.05
2019-03-11T16:23:40.286Z,26.03
2019-03-11T16:26:07.058Z,26.09
2019-03-11T16:28:33.750Z,26.07
2019-03-11T16:31:00.409Z,26.20
2019-03-11T16:33:27.095Z,26.11
2019-03-11T16:35:53.739Z,26.11
2019-03-11T16:38:20.448Z,26.10
2019-03-11T16:40:47.090Z,26.20
2019-03-11T16:43:13.734Z,25.89
2019-03-11T16:45:40.378Z,25.87
2019-03-11T16:48:07.102Z,25.52
2019-03-11T16:50:33.672Z,25.67
2019-03-11T16:53:00.308Z,25.54
2019-03-11T16:55:26.992Z,25.33
2019-03-11T16:57:53.981Z,25.41
2019-03-11T17:00:20.296Z,25.35
2019-03-11T17:02:46.955Z,25.31
2019-03-11T17:05:13.622Z,25.20
2019-03-11T17:07:40.257Z,25.15
2019-03-11T17:10:06.947Z,25.08
2019-03-11T17:12:33.630Z,25.01
2019-03-11T17:15:00.322Z,24.98
2019-03-11T17:17:27.025Z,24.95
2019-03-11T17:19:53.670Z,24.87
2019-03-11T17:22:20.369Z,24.92
2019-03-11T17:24:47.009Z,24.86
2019-03-11T17:27:13.649Z,24.87
2019-03-11T17:29:40.308Z,24.87
2019-03-11T17:32:06.942Z,24.86
2019-03-11T17:34:33.580Z,24.80
2019-03-11T17:37:00.223Z,24.78
2019-03-11T17:39:27.210Z,24.74
2019-03-11T17:41:53.852Z,24.71
2019-03-11T17:44:20.555Z,24.64
2019-03-11T17:46:47.237Z,24.66
2019-03-11T17:49:13.877Z,24.61
2019-03-11T17:51:40.529Z,24.60
2019-03-11T17:54:07.213Z,24.56
2019-03-11T17:56:33.868Z,24.54
2019-03-11T17:59:00.549Z,24.50
2019-03-11T18:01:27.185Z,24.47
2019-03-11T18:03:53.870Z,24.42
2019-03-11T18:06:20.509Z,24.39
2019-03-11T18:08:47.161Z,24.38
2019-03-11T18:11:13.810Z,24.39
2019-03-11T18:13:40.459Z,24.37
2019-03-11T18:16:07.102Z,24.38
2019-03-11T18:18:33.797Z,24.31
2019-03-11T18:21:00.439Z,24.27
2019-03-11T18:23:27.068Z,24.25
2019-03-11T18:25:53.733Z,24.25
2019-03-11T18:28:20.395Z,24.18
2019-03-11T18:30:47.041Z,24.20
2019-03-11T18:33:13.716Z,24.17
2019-03-11T18:35:40.353Z,24.09
2019-03-11T18:38:07.017Z,24.06
2019-03-11T18:40:33.666Z,24.03
2019-03-11T18:43:00.305Z,24.03
2019-03-11T18:45:26.968Z,23.97
2019-03-11T18:47:53.627Z,23.93
2019-03-11T18:50:20.321Z,23.89
2019-03-11T18:52:47.011Z,23.91
2019-03-11T18:55:13.644Z,23.86
2019-03-11T18:57:40.274Z,23.83
2019-03-11T19:00:06.929Z,23.81
2019-03-11T19:02:33.569Z,23.81
2019-03-11T19:05:00.412Z,23.78
2019-03-11T19:07:26.921Z,23.72
2019-03-11T19:09:53.573Z,23.70
2019-03-11T19:12:20.173Z,23.73
2019-03-11T19:14:46.892Z,23.69
2019-03-11T19:17:13.549Z,23.70
2019-03-11T19:19:46.290Z,23.53
2019-03-11T19:22:06.843Z,23.47
2019-03-11T19:24:33.545Z,23.50
2019-03-11T19:27:00.216Z,23.50
2019-03-11T19:29:26.855Z,23.53
2019-03-11T19:31:53.510Z,23.50
2019-03-11T19:34:20.161Z,23.48
2019-03-11T19:36:46.837Z,23.47
2019-03-11T19:39:13.472Z,23.44
2019-03-11T19:41:40.133Z,23.43
2019-03-11T19:44:06.774Z,23.38
2019-03-11T19:46:33.443Z,23.37
2019-03-11T19:49:00.055Z,23.33
2019-03-11T19:51:26.759Z,23.35
2019-03-11T19:53:54.708Z,23.29
2019-03-11T19:56:20.088Z,23.27
2019-03-11T19:58:46.779Z,23.28
2019-03-11T20:01:13.438Z,23.25
2019-03-11T20:03:40.126Z,23.22
2019-03-11T20:06:06.773Z,23.19
2019-03-11T20:08:33.454Z,23.17
2019-03-11T20:11:00.240Z,23.18
2019-03-11T20:13:26.832Z,23.16
2019-03-11T20:15:54.104Z,23.13
2019-03-11T20:18:20.208Z,23.07
2019-03-11T20:20:46.986Z,23.02
2019-03-11T20:23:13.611Z,23.01
2019-03-11T20:25:40.298Z,22.99
2019-03-11T20:28:06.937Z,22.99
2019-03-11T20:30:33.710Z,22.96
2019-03-11T20:33:00.311Z,22.92
2019-03-11T20:35:26.987Z,22.88
2019-03-11T20:37:53.566Z,22.85
2019-03-11T20:40:20.234Z,22.80
2019-03-11T20:42:46.874Z,22.82
2019-03-11T20:45:13.559Z,22.79
2019-03-11T20:47:40.253Z,22.75
2019-03-11T20:50:06.916Z,22.75
2019-03-11T20:52:33.642Z,22.76
2019-03-11T20:55:00.301Z,22.71
2019-03-11T20:57:29.889Z,22.70
2019-03-11T20:59:56.593Z,22.68
2019-03-11T21:02:23.509Z,22.69
2019-03-11T21:04:50.176Z,22.65
2019-03-11T21:07:16.920Z,22.65
2019-03-11T21:09:43.496Z,22.62
2019-03-11T21:12:10.119Z,22.59
2019-03-11T21:14:36.787Z,22.59
2019-03-11T21:17:03.511Z,22.60
2019-03-11T21:19:30.077Z,22.56
2019-03-11T21:21:56.781Z,22.51
2019-03-11T21:24:23.404Z,22.51
2019-03-11T21:26:50.094Z,22.47
2019-03-11T21:29:16.739Z,22.45
2019-03-11T21:31:43.429Z,22.42
2019-03-11T21:34:10.290Z,22.42
2019-03-11T21:36:36.799Z,22.44
2019-03-11T21:39:03.410Z,22.40
2019-03-11T21:41:30.057Z,22.43
2019-03-11T21:43:56.678Z,22.40
2019-03-11T21:46:23.334Z,22.39
2019-03-11T21:48:49.992Z,22.34
2019-03-11T21:51:16.685Z,22.37
2019-03-11T21:53:43.435Z,22.35
2019-03-11T21:56:09.991Z,22.32
2019-03-11T21:58:36.644Z,22.29
2019-03-11T22:01:03.314Z,22.29
2019-03-11T22:03:29.962Z,22.29
2019-03-11T22:05:56.613Z,22.27
2019-03-11T22:08:23.304Z,22.26
2019-03-11T22:10:49.945Z,22.24
2019-03-11T22:13:16.585Z,22.24
2019-03-11T22:15:43.393Z,22.25
2019-03-11T22:18:10.035Z,22.21
2019-03-11T22:20:36.669Z,22.15
2019-03-11T22:23:03.322Z,22.19
2019-03-11T22:25:29.971Z,22.12
2019-03-11T22:27:56.653Z,22.13
2019-03-11T22:30:23.294Z,22.10
2019-03-11T22:32:49.985Z,22.08
2019-03-11T22:35:16.631Z,22.09
2019-03-11T22:37:43.311Z,22.07
2019-03-11T22:40:09.978Z,22.00
2019-03-11T22:42:36.644Z,22.03
2019-03-11T22:45:03.300Z,21.96
2019-03-11T22:47:29.935Z,22.00
2019-03-11T22:49:56.628Z,21.92
2019-03-11T22:52:23.266Z,21.95
2019-03-11T22:54:49.984Z,21.90
2019-03-11T22:57:16.662Z,21.92
2019-03-11T22:59:43.309Z,21.84
2019-03-11T23:02:11.734Z,21.84
2019-03-11T23:04:36.591Z,21.83
2019-03-11T23:07:03.258Z,21.83
2019-03-11T23:09:29.881Z,21.81
2019-03-11T23:11:56.572Z,21.77
2019-03-11T23:14:23.254Z,21.78
2019-03-11T23:16:49.940Z,21.77
2019-03-11T23:19:16.591Z,21.73
2019-03-11T23:21:43.240Z,21.76
2019-03-11T23:24:09.908Z,21.71
2019-03-11T23:26:36.593Z,21.68
2019-03-11T23:29:03.228Z,21.63
2019-03-11T23:31:29.880Z,21.67
2019-03-11T23:33:56.529Z,21.64
2019-03-11T23:36:23.183Z,21.55
2019-03-11T23:38:49.883Z,21.67
2019-03-11T23:41:16.532Z,21.74
2019-03-11T23:43:43.175Z,21.85
2019-03-11T23:46:09.833Z,21.89
2019-03-11T23:48:36.477Z,21.81
2019-03-11T23:51:03.131Z,21.72
2019-03-11T23:53:29.813Z,21.65
2019-03-11T23:55:56.548Z,21.60
2019-03-11T23:58:23.189Z,21.48
